createdAt,value
2023-05-15T00:00:15.527Z,53.44
2023-05-15T00:02:47.269Z,53.39
2023-05-15T00:05:15.313Z,53.56
2023-05-15T00:07:44.240Z,53.54
2023-05-15T00:10:12.085Z,53.71
2023-05-15T00:12:40.384Z,53.70
2023-05-15T00:15:09.271Z,53.81
2023-05-15T00:17:37.754Z,54.02
2023-05-15T00:20:07.949Z,54.02
2023-05-15T00:22:36.120Z,53.89
2023-05-15T00:25:05.057Z,54.02
2023-05-15T00:27:32.910Z,54.12
2023-05-15T00:30:02.035Z,54.27
2023-05-15T00:32:30.124Z,54.23
2023-05-15T00:34:58.650Z,54.44
2023-05-15T00:37:26.842Z,54.69
2023-05-15T00:39:54.999Z,54.46
2023-05-15T00:42:24.439Z,54.54
2023-05-15T00:44:54.544Z,54.47
2023-05-15T00:47:24.245Z,54.41
2023-05-15T00:49:53.730Z,54.43
2023-05-15T00:52:22.618Z,54.53
2023-05-15T00:54:51.339Z,54.76
2023-05-15T00:57:20.556Z,54.94
2023-05-15T00:59:50.234Z,54.76
2023-05-15T01:02:19.826Z,54.80
2023-05-15T01:04:47.999Z,54.91
2023-05-15T01:07:16.432Z,55.30
2023-05-15T01:09:46.486Z,55.30
2023-05-15T01:12:17.203Z,55.12
2023-05-15T01:14:48.613Z,55.37
2023-05-15T01:17:16.451Z,55.40
2023-05-15T01:19:47.685Z,55.23
2023-05-15T01:22:30.781Z,55.33
2023-05-15T01:25:32.350Z,55.25
2023-05-15T01:28:09.506Z,55.11
2023-05-15T01:30:40.850Z,55.56
2023-05-15T01:33:28.921Z,55.48
2023-05-15T01:36:02.785Z,55.44
2023-05-15T01:38:42.298Z,55.37
2023-05-15T01:41:37.240Z,55.58
2023-05-15T01:44:15.226Z,55.64
2023-05-15T01:46:49.103Z,55.50
2023-05-15T01:49:19.747Z,55.50
2023-05-15T01:51:52.090Z,55.59
2023-05-15T01:54:24.506Z,55.46
2023-05-15T01:56:53.287Z,55.08
2023-05-15T01:59:22.235Z,55.39
2023-05-15T02:01:51.880Z,55.36
2023-05-15T02:04:21.286Z,55.18
2023-05-15T02:06:51.014Z,55.23
2023-05-15T02:09:20.903Z,54.98
2023-05-15T02:11:49.476Z,54.85
2023-05-15T02:14:18.126Z,54.73
2023-05-15T02:16:46.421Z,54.96
2023-05-15T02:19:15.025Z,54.97
2023-05-15T02:21:42.976Z,55.03
2023-05-15T02:24:10.838Z,55.05
2023-05-15T02:26:55.233Z,55.00
2023-05-15T02:29:42.672Z,54.96
2023-05-15T02:32:17.552Z,54.80
2023-05-15T02:35:02.534Z,54.85
2023-05-15T02:37:36.752Z,54.88
2023-05-15T02:40:07.962Z,54.64
2023-05-15T02:42:37.532Z,54.44
2023-05-15T02:45:08.047Z,54.43
2023-05-15T02:47:37.353Z,54.40
2023-05-15T02:50:06.290Z,54.25
2023-05-15T02:52:35.631Z,54.01
2023-05-15T02:55:03.573Z,54.22
2023-05-15T02:57:31.599Z,54.15
2023-05-15T02:59:59.541Z,53.97
2023-05-15T03:02:27.631Z,53.77
2023-05-15T03:04:55.591Z,53.67
2023-05-15T03:07:23.348Z,53.51
2023-05-15T03:09:50.998Z,53.47
2023-05-15T03:12:19.173Z,53.48
2023-05-15T03:15:12.637Z,53.54
2023-05-15T03:17:53.536Z,53.30
2023-05-15T03:20:22.695Z,53.26
2023-05-15T03:22:51.078Z,53.56
2023-05-15T03:25:19.136Z,52.95
2023-05-15T03:27:53.552Z,52.78
2023-05-15T03:30:33.207Z,52.66
2023-05-15T03:33:04.040Z,52.84
2023-05-15T03:35:32.813Z,52.60
2023-05-15T03:38:00.839Z,52.50
2023-05-15T03:40:28.776Z,52.39
2023-05-15T03:42:56.955Z,52.30
2023-05-15T03:45:24.968Z,52.39
2023-05-15T03:47:53.208Z,51.96
2023-05-15T03:50:21.723Z,52.00
2023-05-15T03:52:49.980Z,52.04
2023-05-15T03:55:18.449Z,51.97
2023-05-15T03:57:46.283Z,51.67
2023-05-15T04:00:14.882Z,51.74
2023-05-15T04:02:42.917Z,51.69
2023-05-15T04:05:10.929Z,51.51
2023-05-15T04:07:39.138Z,51.16
2023-05-15T04:10:07.193Z,51.19
2023-05-15T04:12:35.756Z,51.23
2023-05-15T04:15:23.365Z,50.91
2023-05-15T04:17:53.455Z,50.67
2023-05-15T04:20:23.474Z,50.62
2023-05-15T04:22:52.246Z,50.33
2023-05-15T04:25:20.497Z,50.00
2023-05-15T04:27:49.574Z,50.05
2023-05-15T04:30:17.568Z,49.58
2023-05-15T04:32:46.013Z,49.69
2023-05-15T04:35:15.226Z,49.46
2023-05-15T04:37:43.628Z,49.35
2023-05-15T04:40:12.382Z,49.11
2023-05-15T04:42:40.181Z,49.10
2023-05-15T04:45:08.752Z,49.07
2023-05-15T04:47:36.974Z,48.73
2023-05-15T04:50:04.960Z,48.49
2023-05-15T04:52:33.743Z,48.45
2023-05-15T04:55:01.818Z,48.45
2023-05-15T04:57:31.229Z,48.22
2023-05-15T04:59:58.823Z,48.21
2023-05-15T05:02:26.472Z,48.03
2023-05-15T05:04:54.552Z,47.79
2023-05-15T05:07:22.428Z,47.62
2023-05-15T05:09:50.869Z,47.25
2023-05-15T05:12:18.564Z,47.15
2023-05-15T05:14:46.492Z,46.81
2023-05-15T05:17:14.561Z,46.80
2023-05-15T05:19:44.623Z,46.49
2023-05-15T05:22:18.375Z,46.23
2023-05-15T05:24:46.345Z,46.13
2023-05-15T05:27:14.442Z,46.00
2023-05-15T05:29:44.588Z,45.83
2023-05-15T05:32:12.919Z,45.72
2023-05-15T05:34:41.212Z,45.38
2023-05-15T05:37:09.377Z,45.22
2023-05-15T05:39:37.128Z,45.05
2023-05-15T05:42:05.305Z,44.88
2023-05-15T05:44:34.766Z,44.87
2023-05-15T05:47:03.227Z,44.70
2023-05-15T05:49:31.648Z,44.55
2023-05-15T05:52:09.212Z,44.51
2023-05-15T05:54:37.430Z,44.47
2023-05-15T05:57:11.068Z,44.30
2023-05-15T05:59:46.965Z,44.03
2023-05-15T06:02:18.425Z,43.98
2023-05-15T06:04:47.642Z,43.82
2023-05-15T06:07:19.021Z,43.79
2023-05-15T06:09:49.411Z,43.52
2023-05-15T06:12:17.793Z,43.27
2023-05-15T06:14:46.368Z,43.06
2023-05-15T06:17:16.132Z,42.98
2023-05-15T06:19:44.383Z,42.80
2023-05-15T06:22:12.955Z,42.47
2023-05-15T06:24:40.825Z,42.41
2023-05-15T06:27:11.949Z,42.00
2023-05-15T06:29:40.352Z,41.85
2023-05-15T06:32:12.257Z,41.66
2023-05-15T06:34:40.877Z,40.94
2023-05-15T06:37:08.954Z,40.38
2023-05-15T06:39:37.565Z,39.67
2023-05-15T06:42:05.858Z,39.17
2023-05-15T06:44:36.166Z,38.89
2023-05-15T06:47:04.441Z,38.65
2023-05-15T06:49:32.201Z,38.06
2023-05-15T06:52:00.896Z,37.75
2023-05-15T06:54:31.498Z,37.39
2023-05-15T06:57:00.355Z,36.97
2023-05-15T06:59:34.903Z,36.86
2023-05-15T07:02:05.303Z,37.17
2023-05-15T07:04:33.882Z,37.41
2023-05-15T07:07:05.889Z,37.84
2023-05-15T07:09:39.595Z,37.77
2023-05-15T07:12:08.623Z,37.79
2023-05-15T07:14:36.875Z,37.55
2023-05-15T07:17:14.655Z,37.28
2023-05-15T07:19:43.159Z,36.95
2023-05-15T07:22:11.159Z,36.92
2023-05-15T07:24:40.686Z,36.67
2023-05-15T07:27:08.781Z,36.26
2023-05-15T07:29:37.029Z,35.96
2023-05-15T07:32:05.283Z,35.71
2023-05-15T07:34:33.325Z,35.49
2023-05-15T07:37:01.243Z,35.44
2023-05-15T07:39:29.253Z,35.37
2023-05-15T07:41:57.324Z,35.58
2023-05-15T07:44:25.188Z,35.63
2023-05-15T07:46:53.036Z,35.51
2023-05-15T07:49:21.242Z,35.45
2023-05-15T07:51:49.085Z,35.22
2023-05-15T07:54:17.224Z,35.07
2023-05-15T07:56:45.387Z,34.78
2023-05-15T07:59:13.156Z,34.75
2023-05-15T08:01:41.235Z,34.73
2023-05-15T08:04:10.300Z,34.45
2023-05-15T08:06:43.818Z,34.80
2023-05-15T08:09:13.099Z,35.01
2023-05-15T08:11:41.657Z,35.04
2023-05-15T08:14:11.672Z,34.73
2023-05-15T08:16:41.607Z,34.75
2023-05-15T08:19:10.526Z,34.86
2023-05-15T08:21:38.598Z,34.39
2023-05-15T08:24:07.102Z,34.46
2023-05-15T08:26:35.266Z,34.11
2023-05-15T08:29:03.223Z,34.06
2023-05-15T08:31:33.742Z,33.67
2023-05-15T08:34:02.090Z,33.41
2023-05-15T08:36:30.667Z,33.71
2023-05-15T08:39:00.645Z,33.49
2023-05-15T08:41:40.734Z,33.38
2023-05-15T08:44:11.267Z,33.46
2023-05-15T08:46:39.446Z,33.28
2023-05-15T08:49:33.917Z,33.46
2023-05-15T08:52:01.866Z,33.53
2023-05-15T08:54:30.297Z,33.30
2023-05-15T08:56:58.889Z,33.07
2023-05-15T08:59:27.188Z,33.11
2023-05-15T09:01:57.062Z,33.16
2023-05-15T09:04:25.085Z,32.96
2023-05-15T09:06:54.944Z,32.89
2023-05-15T09:09:24.956Z,32.85
2023-05-15T09:11:53.958Z,32.74
2023-05-15T09:14:22.273Z,32.64
2023-05-15T09:16:53.630Z,32.70
2023-05-15T09:19:22.717Z,32.63
2023-05-15T09:21:50.897Z,32.38
2023-05-15T09:24:20.248Z,32.27
2023-05-15T09:27:02.498Z,32.28
2023-05-15T09:29:31.857Z,32.26
2023-05-15T09:32:07.607Z,32.42
2023-05-15T09:34:41.052Z,32.12
2023-05-15T09:37:28.414Z,32.27
2023-05-15T09:39:56.540Z,32.25
2023-05-15T09:42:25.097Z,31.97
2023-05-15T09:44:52.835Z,32.08
2023-05-15T09:47:21.516Z,32.13
2023-05-15T09:49:49.602Z,32.18
2023-05-15T09:52:17.621Z,32.06
2023-05-15T09:54:50.678Z,31.98
2023-05-15T09:57:23.042Z,32.02
2023-05-15T09:59:51.799Z,31.83
2023-05-15T10:02:32.309Z,31.65
2023-05-15T10:05:01.478Z,31.70
2023-05-15T10:07:37.109Z,31.69
2023-05-15T10:10:05.980Z,31.66
2023-05-15T10:12:36.885Z,31.45
2023-05-15T10:15:05.964Z,31.40
2023-05-15T10:17:36.553Z,31.29
2023-05-15T10:20:08.394Z,31.14
2023-05-15T10:22:40.937Z,31.15
2023-05-15T10:25:17.696Z,30.92
2023-05-15T10:27:48.342Z,30.58
2023-05-15T10:30:17.382Z,30.45
2023-05-15T10:32:45.628Z,30.41
2023-05-15T10:35:13.531Z,30.15
2023-05-15T10:37:42.307Z,29.85
2023-05-15T10:40:11.409Z,29.49
2023-05-15T10:42:42.321Z,29.56
2023-05-15T10:45:11.011Z,29.14
2023-05-15T10:47:41.106Z,29.07
2023-05-15T10:50:09.957Z,29.07
2023-05-15T10:52:38.865Z,28.96
2023-05-15T10:55:08.958Z,28.76
2023-05-15T10:57:37.599Z,28.64
2023-05-15T11:00:29.597Z,28.65
2023-05-15T11:02:59.375Z,28.36
2023-05-15T11:05:27.468Z,28.44
2023-05-15T11:08:19.761Z,28.30
2023-05-15T11:10:48.491Z,28.38
2023-05-15T11:13:16.597Z,28.51
2023-05-15T11:15:48.641Z,28.30
2023-05-15T11:18:17.101Z,28.49
2023-05-15T11:20:52.174Z,28.30
2023-05-15T11:23:23.933Z,28.63
2023-05-15T11:25:57.067Z,28.38
2023-05-15T11:28:26.322Z,28.20
2023-05-15T11:31:00.392Z,27.76
2023-05-15T11:33:31.674Z,27.70
2023-05-15T11:36:03.472Z,27.36
2023-05-15T11:38:39.791Z,27.43
2023-05-15T11:41:22.704Z,27.37
2023-05-15T11:43:53.028Z,27.21
2023-05-15T11:46:22.466Z,26.87
2023-05-15T11:48:50.862Z,26.78
2023-05-15T11:51:25.397Z,26.68
2023-05-15T11:53:55.476Z,26.82
2023-05-15T11:56:30.242Z,26.87
2023-05-15T11:58:59.901Z,26.68
2023-05-15T12:01:29.703Z,26.88
2023-05-15T12:03:57.789Z,26.60
2023-05-15T12:06:26.713Z,26.56
2023-05-15T12:08:54.451Z,26.78
2023-05-15T12:11:24.101Z,26.72
2023-05-15T12:13:54.502Z,26.32
2023-05-15T12:16:26.933Z,26.46
2023-05-15T12:18:56.726Z,26.43
2023-05-15T12:21:27.183Z,26.29
2023-05-15T12:24:07.589Z,26.17
2023-05-15T12:26:36.388Z,25.93
2023-05-15T12:29:05.796Z,25.99
2023-05-15T12:31:37.036Z,25.49
2023-05-15T12:34:05.568Z,25.22
2023-05-15T12:36:40.039Z,24.24
2023-05-15T12:39:08.644Z,22.25
2023-05-15T12:41:39.347Z,20.17
2023-05-15T12:44:11.613Z,19.02
2023-05-15T12:46:41.419Z,18.05
2023-05-15T12:49:21.277Z,17.25
2023-05-15T12:51:50.215Z,16.76
2023-05-15T12:54:19.442Z,16.34
2023-05-15T12:56:50.541Z,15.95
2023-05-15T12:59:19.391Z,15.79
2023-05-15T13:01:47.605Z,15.83
2023-05-15T13:04:16.787Z,15.92
2023-05-15T13:06:47.883Z,15.86
2023-05-15T13:09:22.593Z,15.39
2023-05-15T13:11:51.175Z,15.04
2023-05-15T13:14:19.961Z,14.73
2023-05-15T13:16:48.545Z,14.17
2023-05-15T13:19:17.082Z,13.98
2023-05-15T13:21:46.073Z,13.52
2023-05-15T13:24:13.876Z,13.07
2023-05-15T13:26:42.281Z,12.90
2023-05-15T13:29:10.051Z,12.72
2023-05-15T13:31:37.719Z,12.55
2023-05-15T13:34:05.370Z,12.72
2023-05-15T13:36:37.245Z,12.30
2023-05-15T13:39:06.730Z,12.69
2023-05-15T13:41:36.745Z,12.47
2023-05-15T13:44:04.908Z,12.21
2023-05-15T13:46:33.277Z,12.16
2023-05-15T13:49:07.581Z,12.07
2023-05-15T13:51:37.743Z,11.79
2023-05-15T13:54:05.654Z,11.49
2023-05-15T13:56:33.798Z,11.45
2023-05-15T13:59:02.140Z,11.14
2023-05-15T14:01:30.371Z,11.31
2023-05-15T14:03:58.539Z,11.42
2023-05-15T14:06:28.005Z,11.11
2023-05-15T14:08:56.439Z,11.31
2023-05-15T14:11:24.409Z,11.05
2023-05-15T14:13:52.177Z,11.04
2023-05-15T14:16:20.182Z,11.03
2023-05-15T14:18:51.567Z,10.87
2023-05-15T14:21:19.462Z,10.58
2023-05-15T14:23:47.711Z,10.69
2023-05-15T14:26:29.763Z,10.97
2023-05-15T14:29:03.324Z,10.65
2023-05-15T14:31:31.164Z,10.37
2023-05-15T14:33:58.835Z,10.35
2023-05-15T14:36:27.035Z,10.02
2023-05-15T14:38:55.053Z,9.95
2023-05-15T14:41:22.839Z,9.73
2023-05-15T14:43:50.923Z,9.85
2023-05-15T14:46:18.940Z,9.83
2023-05-15T14:48:47.113Z,9.65
2023-05-15T14:51:16.724Z,9.66
2023-05-15T14:53:48.109Z,10.00
2023-05-15T14:56:16.172Z,9.78
2023-05-15T14:58:44.240Z,9.60
2023-05-15T15:01:12.502Z,9.76
2023-05-15T15:03:43.282Z,9.78
2023-05-15T15:06:11.360Z,10.01
2023-05-15T15:08:39.385Z,9.92
2023-05-15T15:11:07.895Z,10.20
2023-05-15T15:13:35.934Z,9.77
2023-05-15T15:16:05.000Z,9.50
2023-05-15T15:18:33.748Z,9.84
2023-05-15T15:21:01.776Z,9.83
2023-05-15T15:23:29.736Z,10.23
2023-05-15T15:25:57.956Z,10.46
2023-05-15T15:28:26.527Z,10.20
2023-05-15T15:30:54.455Z,10.52
2023-05-15T15:33:22.278Z,10.49
2023-05-15T15:35:50.347Z,10.90
2023-05-15T15:38:18.058Z,10.77
2023-05-15T15:40:45.860Z,10.75
2023-05-15T15:43:14.064Z,10.79
2023-05-15T15:45:41.840Z,10.87
2023-05-15T15:48:09.525Z,11.68
2023-05-15T15:50:37.105Z,12.05
2023-05-15T15:53:04.951Z,12.63
2023-05-15T15:55:32.698Z,12.28
2023-05-15T15:58:00.673Z,12.41
2023-05-15T16:00:28.387Z,12.14
2023-05-15T16:02:56.363Z,12.20
2023-05-15T16:05:24.215Z,12.04
2023-05-15T16:07:52.202Z,12.04
2023-05-15T16:10:21.150Z,11.87
2023-05-15T16:12:49.106Z,12.21
2023-05-15T16:15:23.233Z,12.19
2023-05-15T16:17:54.081Z,12.38
2023-05-15T16:20:24.008Z,12.46
2023-05-15T16:22:52.737Z,12.57
2023-05-15T16:25:20.684Z,12.94
2023-05-15T16:27:48.734Z,13.25
2023-05-15T16:30:19.184Z,13.68
2023-05-15T16:32:47.332Z,14.23
2023-05-15T16:35:14.888Z,15.10
2023-05-15T16:37:42.837Z,16.36
2023-05-15T16:40:11.176Z,17.87
2023-05-15T16:42:39.002Z,18.89
2023-05-15T16:45:07.688Z,19.48
2023-05-15T16:47:38.388Z,19.89
2023-05-15T16:50:07.566Z,20.55
2023-05-15T16:52:36.025Z,21.03
2023-05-15T16:55:04.307Z,21.28
2023-05-15T16:57:32.297Z,21.73
2023-05-15T17:00:00.006Z,22.16
2023-05-15T17:02:28.262Z,22.55
2023-05-15T17:04:58.919Z,22.87
2023-05-15T17:07:27.109Z,23.21
2023-05-15T17:09:55.187Z,23.44
2023-05-15T17:12:23.765Z,23.80
2023-05-15T17:14:51.571Z,24.07
2023-05-15T17:17:19.577Z,24.29
2023-05-15T17:19:47.201Z,24.65
2023-05-15T17:22:15.118Z,24.80
2023-05-15T17:27:18.611Z,25.29
2023-05-15T17:29:46.766Z,25.68
2023-05-15T17:32:16.001Z,25.93
2023-05-15T17:34:43.855Z,26.35
2023-05-15T17:37:11.530Z,26.66
2023-05-15T17:39:39.440Z,27.08
2023-05-15T17:42:07.401Z,27.28
2023-05-15T17:44:35.147Z,27.64
2023-05-15T17:47:02.731Z,27.54
2023-05-15T17:49:33.114Z,27.63
2023-05-15T17:52:02.075Z,27.93
2023-05-15T17:54:31.332Z,28.39
2023-05-15T17:57:00.857Z,28.27
2023-05-15T17:59:34.349Z,28.66
2023-05-15T18:02:04.965Z,28.70
2023-05-15T18:04:35.632Z,28.80
2023-05-15T18:07:03.945Z,29.23
2023-05-15T18:09:32.103Z,29.43
2023-05-15T18:12:00.184Z,29.65
2023-05-15T18:14:30.967Z,29.78
2023-05-15T18:16:59.883Z,30.04
2023-05-15T18:19:28.456Z,30.27
2023-05-15T18:21:56.879Z,30.31
2023-05-15T18:24:25.744Z,30.60
2023-05-15T18:26:54.449Z,30.69
2023-05-15T18:29:24.564Z,30.90
2023-05-15T18:31:56.275Z,31.14
2023-05-15T18:34:27.607Z,31.28
2023-05-15T18:36:56.077Z,31.51
2023-05-15T18:39:23.820Z,31.82
2023-05-15T18:41:54.330Z,31.93
2023-05-15T18:46:23.704Z,32.21
2023-05-15T18:52:11.316Z,31.93
2023-05-15T18:54:43.626Z,32.01
2023-05-15T18:57:16.615Z,32.23
2023-05-15T18:59:48.985Z,32.26
2023-05-15T19:02:17.855Z,32.16
2023-05-15T19:04:46.137Z,32.28
2023-05-15T19:07:14.381Z,32.41
2023-05-15T19:09:42.461Z,32.42
2023-05-15T19:12:12.287Z,32.59
2023-05-15T19:14:41.039Z,32.67
2023-05-15T19:17:21.652Z,32.90
2023-05-15T19:19:52.304Z,32.88
2023-05-15T19:25:21.054Z,33.34
2023-05-15T19:27:48.912Z,33.61
2023-05-15T19:30:16.885Z,33.69
2023-05-15T19:32:45.439Z,33.88
2023-05-15T19:35:13.631Z,34.01
2023-05-15T19:37:41.110Z,33.82
2023-05-15T19:40:09.945Z,33.79
2023-05-15T19:42:37.761Z,33.79
2023-05-15T19:45:10.843Z,34.04
2023-05-15T19:47:42.931Z,34.11
2023-05-15T19:50:11.372Z,34.24
2023-05-15T19:52:38.988Z,34.46
2023-05-15T19:55:06.737Z,34.74
2023-05-15T19:57:35.060Z,35.02
2023-05-15T20:00:04.952Z,35.34
2023-05-15T20:02:33.030Z,35.46
2023-05-15T20:05:00.781Z,35.70
2023-05-15T20:07:28.694Z,35.65
2023-05-15T20:09:56.472Z,35.67
2023-05-15T20:12:24.079Z,35.37
2023-05-15T20:14:52.464Z,35.65
2023-05-15T20:17:20.828Z,35.75
2023-05-15T20:19:49.598Z,35.79
2023-05-15T20:22:17.569Z,35.63
2023-05-15T20:24:46.011Z,35.47
2023-05-15T20:27:13.792Z,35.69
2023-05-15T20:29:41.554Z,35.94
2023-05-15T20:32:15.700Z,36.26
2023-05-15T20:34:45.835Z,36.36
2023-05-15T20:37:13.885Z,36.57
2023-05-15T20:39:49.367Z,36.74
2023-05-15T20:42:18.240Z,36.88
2023-05-15T20:44:47.132Z,37.16
2023-05-15T20:47:17.879Z,37.16
2023-05-15T20:49:47.465Z,37.33
2023-05-15T20:52:16.206Z,37.05
2023-05-15T20:55:00.394Z,36.91
2023-05-15T20:57:28.365Z,36.87
2023-05-15T20:59:56.467Z,36.83
2023-05-15T21:02:24.217Z,36.72
2023-05-15T21:04:51.976Z,36.72
2023-05-15T21:07:19.652Z,36.66
2023-05-15T21:09:47.407Z,36.68
2023-05-15T21:12:15.113Z,36.61
2023-05-15T21:14:42.811Z,36.48
2023-05-15T21:17:13.174Z,36.40
2023-05-15T21:19:41.316Z,36.30
2023-05-15T21:22:08.955Z,36.51
2023-05-15T21:24:36.843Z,36.25
2023-05-15T21:27:04.622Z,36.60
2023-05-15T21:29:32.427Z,36.86
2023-05-15T21:32:00.286Z,36.92
2023-05-15T21:34:27.855Z,37.35
2023-05-15T21:36:55.565Z,37.61
2023-05-15T21:39:23.270Z,37.85
2023-05-15T21:41:51.506Z,37.77
2023-05-15T21:44:19.567Z,38.06
2023-05-15T21:46:47.438Z,37.97
2023-05-15T21:49:15.210Z,37.98
2023-05-15T21:51:42.658Z,38.27
2023-05-15T21:54:10.268Z,38.37
2023-05-15T21:56:37.932Z,38.45
2023-05-15T21:59:05.848Z,38.56
2023-05-15T22:01:33.518Z,38.68
2023-05-15T22:04:02.804Z,38.59
2023-05-15T22:06:31.341Z,38.59
2023-05-15T22:08:59.206Z,38.72
2023-05-15T22:11:27.198Z,38.69
2023-05-15T22:13:54.817Z,38.79
2023-05-15T22:16:23.104Z,38.88
2023-05-15T22:18:51.295Z,38.98
2023-05-15T22:21:19.586Z,39.10
2023-05-15T22:23:47.878Z,39.10
2023-05-15T22:26:15.871Z,39.23
2023-05-15T22:28:43.464Z,39.26
2023-05-15T22:31:11.380Z,39.36
2023-05-15T22:33:39.328Z,39.54
2023-05-15T22:36:07.104Z,39.58
2023-05-15T22:38:34.815Z,39.56
2023-05-15T22:41:02.279Z,39.47
2023-05-15T22:43:30.399Z,39.36
2023-05-15T22:45:58.095Z,39.39
2023-05-15T22:48:25.895Z,39.38
2023-05-15T22:50:54.044Z,39.43
2023-05-15T22:53:21.815Z,39.54
2023-05-15T22:55:49.518Z,39.47
2023-05-15T22:58:17.270Z,39.81
2023-05-15T23:00:44.941Z,39.84
2023-05-15T23:03:12.933Z,39.85
2023-05-15T23:05:40.677Z,40.34
2023-05-15T23:08:08.288Z,40.42
2023-05-15T23:10:35.800Z,40.77
2023-05-15T23:13:04.812Z,41.04
2023-05-15T23:15:32.670Z,41.21
2023-05-15T23:18:00.409Z,41.39
2023-05-15T23:20:28.337Z,41.47
2023-05-15T23:22:56.133Z,41.56
2023-05-15T23:25:23.685Z,41.90
2023-05-15T23:27:51.332Z,42.18
2023-05-15T23:30:18.997Z,42.32
2023-05-15T23:32:46.976Z,42.81
2023-05-15T23:35:14.468Z,42.92
2023-05-15T23:37:42.363Z,43.26
2023-05-15T23:40:10.433Z,43.62
2023-05-15T23:42:38.055Z,43.96
2023-05-15T23:45:06.374Z,44.12
2023-05-15T23:47:34.244Z,44.51
2023-05-15T23:50:06.884Z,44.94
2023-05-15T23:52:34.623Z,45.04
2023-05-15T23:55:02.109Z,45.18
2023-05-15T23:57:31.090Z,45.42
2023-05-15T23:59:58.535Z,45.54
